메인 페이지
METAR-TAF:

METAR-TAF

공항 :

코펜하겐 카스트럽 국제공항

코펜하겐, 덴마크

위도: 55-37N, 경도: 012-39E, 고도: 5m

현재 날씨관측

예보는 25분 전, 14:20시(UTC)에 발표되었습니다.
4kt북북동풍과 동남동풍을 오가는
온도 22°C
습도 33%
기압 1025 hPa
시정 10km 이상
1500m 미만 상공 구름 및 적란운 없음

METAR: EKCH 251420Z 08004KT 030V120 CAVOK 22/05 Q1025 NOSIG

시각: 16:45 (14:45 UTC)

예보

예보는 3 시간 44분 전, 11:01시(UTC)에 발표되었습니다.
예보 대상 시간: 25일 12시부터 26일 12시까지 (UTC)
동북동10kt
시정 10km 이상
1500m 미만 상공 구름 및 적란운 없음
일시적
25일 12시부터 25일 18시까지 (UTC)
8kt
확률 40% :
일시적
26일 06시부터 26일 12시까지 (UTC)
시정: 4000m
고도 5000ft 상공 구름 보통, 적란운.
뇌우, 비

TAF: EKCH 251101Z 2512/2612 07010KT CAVOK TEMPO 2512/2518 18008KT PROB40 TEMPO 2606/2612 4000 TSRA SCT050CB

4,000개 이상의 공항 관측 자료 및 예보 (METAR 및 TAF 보고).

지도상에서 검색 가능한 기상관측소가 노란 점과 빨간 점으로 표시되어 있습니다.

기상관측소 명을 보려면 표시 위로 마우스를 이동하세요.

날씨 관측과 예보를 보려면 클릭하세요.

지도 변경 : 확대하려면 엑스 표시가 있는 녹색 버튼, 축소하려면 빼기 표시가 있는 녹색 버튼, 다음 페이지의 지도를 보려면 녹색 화살표를 클릭하세요.


METAR-TAF: